createdAt,value
2016-06-15T00:00:28.034Z,0
2016-06-15T00:01:28.085Z,0
2016-06-15T00:02:27.869Z,0
2016-06-15T00:03:28.028Z,0
2016-06-15T00:04:28.531Z,0
2016-06-15T00:05:28.487Z,0
2016-06-15T00:06:28.115Z,0
2016-06-15T00:07:28.071Z,0
2016-06-15T00:08:28.043Z,0
2016-06-15T00:09:27.859Z,0
2016-06-15T00:10:28.035Z,0
2016-06-15T00:11:28.162Z,0
2016-06-15T00:12:28.041Z,0
2016-06-15T00:13:28.058Z,0
2016-06-15T00:14:28.047Z,0
2016-06-15T00:15:28.081Z,0
2016-06-15T00:16:28.193Z,0
2016-06-15T00:17:28.087Z,0
2016-06-15T00:18:28.043Z,0
2016-06-15T00:19:29.655Z,0
2016-06-15T00:20:28.299Z,0
2016-06-15T00:21:28.162Z,0
2016-06-15T00:22:28.039Z,0
2016-06-15T00:23:28.090Z,0
2016-06-15T00:24:28.077Z,0
2016-06-15T00:25:28.065Z,0
2016-06-15T00:26:28.161Z,0
2016-06-15T00:27:28.071Z,0
2016-06-15T00:28:28.073Z,0
2016-06-15T00:29:28.139Z,0
2016-06-15T00:30:28.063Z,0
2016-06-15T00:31:28.067Z,0
2016-06-15T00:32:27.883Z,0
2016-06-15T00:33:28.089Z,0
2016-06-15T00:34:28.561Z,0
2016-06-15T00:35:28.095Z,0
2016-06-15T00:36:28.177Z,0
2016-06-15T00:37:28.070Z,0
2016-06-15T00:38:28.073Z,0
2016-06-15T00:39:28.092Z,0
2016-06-15T00:40:28.111Z,0
2016-06-15T00:41:28.019Z,0
2016-06-15T00:42:28.101Z,0
2016-06-15T00:43:28.089Z,0
2016-06-15T00:44:28.092Z,0
2016-06-15T00:45:28.079Z,0
2016-06-15T00:46:28.129Z,0
2016-06-15T00:47:28.085Z,0
2016-06-15T00:48:28.088Z,0
2016-06-15T00:49:28.091Z,0
2016-06-15T00:50:28.610Z,0
2016-06-15T00:51:28.207Z,0
2016-06-15T00:52:28.084Z,0
2016-06-15T00:53:28.088Z,0
2016-06-15T00:54:28.076Z,0
2016-06-15T00:55:28.110Z,0
2016-06-15T00:56:28.066Z,0
2016-06-15T00:57:28.116Z,0
2016-06-15T00:58:28.150Z,0
2016-06-15T00:59:28.189Z,0
2016-06-15T01:00:28.198Z,0
2016-06-15T01:01:28.362Z,0
2016-06-15T01:02:28.291Z,0
2016-06-15T01:03:28.312Z,0
2016-06-15T01:04:28.297Z,0
2016-06-15T01:05:28.313Z,0
2016-06-15T01:06:28.485Z,0
2016-06-15T01:07:28.205Z,0
2016-06-15T01:08:28.370Z,0
2016-06-15T01:09:28.363Z,0
2016-06-15T01:10:28.386Z,0
2016-06-15T01:11:28.442Z,0
2016-06-15T01:12:28.402Z,0
2016-06-15T01:13:28.408Z,0
2016-06-15T01:14:28.396Z,0
2016-06-15T01:15:28.245Z,0
2016-06-15T01:16:28.516Z,0
2016-06-15T01:17:28.410Z,0
2016-06-15T01:18:28.446Z,0
2016-06-15T01:19:28.403Z,0
2016-06-15T01:20:29.047Z,0
2016-06-15T01:21:28.520Z,0
2016-06-15T01:22:28.430Z,0
2016-06-15T01:23:28.418Z,0
2016-06-15T01:24:28.452Z,0
2016-06-15T01:25:28.408Z,0
2016-06-15T01:26:28.552Z,0
2016-06-15T01:27:28.415Z,0
2016-06-15T01:28:28.448Z,0
2016-06-15T01:29:28.421Z,0
2016-06-15T01:30:28.407Z,0
2016-06-15T01:31:28.458Z,0
2016-06-15T01:32:28.429Z,0
2016-06-15T01:33:28.417Z,0
2016-06-15T01:34:28.451Z,0
2016-06-15T01:35:28.298Z,0
2016-06-15T01:36:28.597Z,0
2016-06-15T01:37:28.461Z,0
2016-06-15T01:38:28.448Z,0
2016-06-15T01:39:28.420Z,0
2016-06-15T01:40:28.438Z,0
2016-06-15T01:41:28.582Z,0
2016-06-15T01:42:28.429Z,0
2016-06-15T01:43:28.447Z,0
2016-06-15T01:44:28.451Z,0
2016-06-15T01:45:28.422Z,0
2016-06-15T01:46:28.472Z,0
2016-06-15T01:47:28.428Z,0
2016-06-15T01:48:28.448Z,0
2016-06-15T01:49:28.482Z,0
2016-06-15T01:50:28.297Z,0
2016-06-15T01:51:28.613Z,0
2016-06-15T01:52:28.460Z,0
2016-06-15T01:53:28.494Z,0
2016-06-15T01:54:28.450Z,0
2016-06-15T01:55:28.469Z,0
2016-06-15T01:56:28.550Z,0
2016-06-15T01:57:28.490Z,0
2016-06-15T01:58:28.478Z,0
2016-06-15T01:59:28.466Z,0
2016-06-15T02:00:28.485Z,0
2016-06-15T02:01:28.566Z,0
2016-06-15T02:02:28.334Z,0
2016-06-15T02:03:28.478Z,0
2016-06-15T02:04:28.497Z,0
2016-06-15T02:05:28.672Z,0
2016-06-15T02:06:28.612Z,0
2016-06-15T02:07:28.506Z,0
2016-06-15T02:08:28.477Z,0
2016-06-15T02:09:28.480Z,0
2016-06-15T02:10:28.468Z,0
2016-06-15T02:11:28.659Z,0
2016-06-15T02:12:28.506Z,0
2016-06-15T02:13:28.493Z,0
2016-06-15T02:14:28.496Z,0
2016-06-15T02:15:28.499Z,0
2016-06-15T02:16:28.612Z,0
2016-06-15T02:17:28.474Z,0
2016-06-15T02:18:28.524Z,0
2016-06-15T02:19:28.480Z,0
2016-06-15T02:20:28.233Z,0
2016-06-15T02:21:28.642Z,0
2016-06-15T02:22:28.365Z,0
2016-06-15T02:23:28.523Z,0
2016-06-15T02:24:28.496Z,0
2016-06-15T02:25:28.373Z,0
2016-06-15T02:26:28.501Z,0
2016-06-15T02:27:28.473Z,0
2016-06-15T02:28:28.524Z,0
2016-06-15T02:29:28.495Z,0
2016-06-15T02:30:28.499Z,0
2016-06-15T02:31:28.454Z,0
2016-06-15T02:32:28.520Z,0
2016-06-15T02:33:28.539Z,0
2016-06-15T02:34:28.526Z,0
2016-06-15T02:35:28.842Z,0
2016-06-15T02:36:28.532Z,0
2016-06-15T02:37:28.535Z,0
2016-06-15T02:38:28.538Z,0
2016-06-15T02:39:28.557Z,0
2016-06-15T02:40:28.513Z,0
2016-06-15T02:41:28.720Z,0
2016-06-15T02:42:28.535Z,0
2016-06-15T02:43:28.539Z,0
2016-06-15T02:44:28.557Z,0
2016-06-15T02:45:28.545Z,0
2016-06-15T02:46:28.454Z,0
2016-06-15T02:47:28.222Z,0
2016-06-15T02:48:28.554Z,0
2016-06-15T02:49:28.353Z,0
2016-06-15T02:50:28.545Z,0
2016-06-15T02:51:28.719Z,0
2016-06-15T02:52:28.535Z,0
2016-06-15T02:53:28.569Z,0
2016-06-15T02:54:28.526Z,0
2016-06-15T02:55:28.544Z,0
2016-06-15T02:56:28.704Z,0
2016-06-15T02:57:28.534Z,0
2016-06-15T02:58:28.569Z,0
2016-06-15T02:59:28.540Z,0
2016-06-15T03:00:28.559Z,0
2016-06-15T03:01:28.687Z,0
2016-06-15T03:02:28.535Z,0
2016-06-15T03:03:28.568Z,0
2016-06-15T03:04:28.571Z,0
2016-06-15T03:05:28.965Z,0
2016-06-15T03:06:29.485Z,0
2016-06-15T03:07:28.566Z,0
2016-06-15T03:08:28.569Z,0
2016-06-15T03:09:28.556Z,0
2016-06-15T03:10:28.589Z,0
2016-06-15T03:11:28.703Z,0
2016-06-15T03:12:28.565Z,0
2016-06-15T03:13:28.584Z,0
2016-06-15T03:14:28.555Z,0
2016-06-15T03:15:28.590Z,5
2016-06-15T03:16:28.780Z,5
2016-06-15T03:17:28.581Z,5
2016-06-15T03:18:28.567Z,5
2016-06-15T03:19:28.570Z,5
2016-06-15T03:20:28.745Z,5
2016-06-15T03:21:29.045Z,5
2016-06-15T03:22:28.548Z,5
2016-06-15T03:23:28.583Z,5
2016-06-15T03:24:28.601Z,5
2016-06-15T03:25:28.574Z,5
2016-06-15T03:26:28.796Z,5
2016-06-15T03:27:28.408Z,5
2016-06-15T03:28:28.583Z,10
2016-06-15T03:29:28.586Z,10
2016-06-15T03:30:28.636Z,10
2016-06-15T03:31:28.826Z,10
2016-06-15T03:32:28.579Z,10
2016-06-15T03:33:28.598Z,10
2016-06-15T03:34:28.602Z,15
2016-06-15T03:35:28.651Z,15
2016-06-15T03:36:28.608Z,15
2016-06-15T03:37:28.595Z,15
2016-06-15T03:38:28.614Z,15
2016-06-15T03:39:28.601Z,15
2016-06-15T03:40:28.604Z,15
2016-06-15T03:41:28.842Z,15
2016-06-15T03:42:28.610Z,15
2016-06-15T03:43:28.598Z,20
2016-06-15T03:44:28.585Z,20
2016-06-15T03:45:28.589Z,20
2016-06-15T03:46:28.778Z,25
2016-06-15T03:47:28.595Z,25
2016-06-15T03:48:28.597Z,25
2016-06-15T03:49:28.601Z,25
2016-06-15T03:50:28.462Z,25
2016-06-15T03:51:29.279Z,25
2016-06-15T03:52:28.609Z,25
2016-06-15T03:53:28.644Z,25
2016-06-15T03:54:28.615Z,25
2016-06-15T03:55:28.619Z,30
2016-06-15T03:56:28.809Z,30
2016-06-15T03:57:28.578Z,35
2016-06-15T03:58:28.645Z,35
2016-06-15T03:59:28.615Z,35
2016-06-15T04:00:28.587Z,40
2016-06-15T04:01:28.825Z,45
2016-06-15T04:02:28.624Z,45
2016-06-15T04:03:28.644Z,75
2016-06-15T04:04:28.615Z,110
2016-06-15T04:05:29.603Z,100
2016-06-15T04:06:29.872Z,60
2016-06-15T04:07:28.640Z,55
2016-06-15T04:08:28.643Z,105
2016-06-15T04:09:28.615Z,190
2016-06-15T04:10:28.618Z,200
2016-06-15T04:11:28.777Z,190
2016-06-15T04:12:28.593Z,100
2016-06-15T04:13:28.643Z,70
2016-06-15T04:14:28.614Z,75
2016-06-15T04:15:28.634Z,80
2016-06-15T04:16:28.808Z,85
2016-06-15T04:17:28.499Z,85
2016-06-15T04:18:28.627Z,90
2016-06-15T04:19:28.615Z,90
2016-06-15T04:20:28.649Z,95
2016-06-15T04:21:29.168Z,110
2016-06-15T04:22:28.655Z,105
2016-06-15T04:23:28.642Z,120
2016-06-15T04:24:28.646Z,125
2016-06-15T04:25:28.648Z,165
2016-06-15T04:26:28.793Z,170
2016-06-15T04:27:28.483Z,150
2016-06-15T04:28:28.690Z,155
2016-06-15T04:29:28.677Z,170
2016-06-15T04:30:28.633Z,180
2016-06-15T04:31:28.683Z,235
2016-06-15T04:32:28.639Z,160
2016-06-15T04:33:28.658Z,140
2016-06-15T04:34:28.645Z,165
2016-06-15T04:35:28.664Z,285
2016-06-15T04:36:29.776Z,205
2016-06-15T04:37:28.654Z,120
2016-06-15T04:38:28.657Z,125
2016-06-15T04:39:28.660Z,145
2016-06-15T04:40:28.711Z,160
2016-06-15T04:41:28.822Z,190
2016-06-15T04:42:28.669Z,205
2016-06-15T04:43:28.672Z,200
2016-06-15T04:44:28.503Z,100
2016-06-15T04:45:28.678Z,85
2016-06-15T04:46:28.838Z,55
2016-06-15T04:47:28.528Z,55
2016-06-15T04:48:28.704Z,55
2016-06-15T04:49:28.707Z,50
2016-06-15T04:50:28.694Z,50
2016-06-15T04:51:29.041Z,40
2016-06-15T04:52:28.731Z,35
2016-06-15T04:53:28.531Z,35
2016-06-15T04:54:28.691Z,35
2016-06-15T04:55:28.569Z,30
2016-06-15T04:56:28.931Z,30
2016-06-15T04:57:28.716Z,30
2016-06-15T04:58:28.578Z,25
2016-06-15T04:59:28.753Z,25
2016-06-15T05:00:28.755Z,25
2016-06-15T05:01:28.963Z,30
2016-06-15T05:02:28.762Z,35
2016-06-15T05:03:28.750Z,40
2016-06-15T05:04:28.753Z,40
2016-06-15T05:05:28.771Z,35
2016-06-15T05:06:28.790Z,35
2016-06-15T05:07:28.746Z,35
2016-06-15T05:08:28.750Z,35
2016-06-15T05:09:28.721Z,35
2016-06-15T05:10:28.725Z,35
2016-06-15T05:11:28.930Z,35
2016-06-15T05:12:28.762Z,35
2016-06-15T05:13:28.765Z,35
2016-06-15T05:14:28.518Z,35
2016-06-15T05:15:28.787Z,30
2016-06-15T05:16:28.962Z,25
2016-06-15T05:17:28.746Z,25
2016-06-15T05:18:28.796Z,25
2016-06-15T05:19:28.769Z,25
2016-06-15T05:20:28.802Z,25
2016-06-15T05:21:29.478Z,25
2016-06-15T05:22:28.792Z,25
2016-06-15T05:23:28.796Z,30
2016-06-15T05:24:28.783Z,30
2016-06-15T05:25:28.771Z,35
2016-06-15T05:26:28.929Z,40
2016-06-15T05:27:28.793Z,40
2016-06-15T05:28:28.796Z,45
2016-06-15T05:29:28.674Z,45
2016-06-15T05:30:28.802Z,50
2016-06-15T05:31:28.961Z,50
2016-06-15T05:32:28.620Z,50
2016-06-15T05:33:28.795Z,50
2016-06-15T05:34:28.798Z,50
2016-06-15T05:35:28.818Z,55
2016-06-15T05:36:29.257Z,60
2016-06-15T05:37:28.807Z,65
2016-06-15T05:38:28.638Z,70
2016-06-15T05:39:28.797Z,75
2016-06-15T05:40:28.785Z,75
2016-06-15T05:41:28.945Z,80
2016-06-15T05:42:28.807Z,85
2016-06-15T05:43:28.809Z,85
2016-06-15T05:44:28.782Z,90
2016-06-15T05:45:28.785Z,85
2016-06-15T05:46:28.961Z,85
2016-06-15T05:47:28.822Z,80
2016-06-15T05:48:28.826Z,75
2016-06-15T05:49:28.860Z,70
2016-06-15T05:50:28.691Z,65
2016-06-15T05:51:28.928Z,65
2016-06-15T05:52:28.823Z,60
2016-06-15T05:53:28.840Z,55
2016-06-15T05:54:28.813Z,50
2016-06-15T05:55:28.831Z,50
2016-06-15T05:56:28.975Z,50
2016-06-15T05:57:28.838Z,50
2016-06-15T05:58:28.841Z,50
2016-06-15T05:59:28.859Z,55
2016-06-15T06:00:28.831Z,60
2016-06-15T06:01:28.990Z,65
2016-06-15T06:02:28.869Z,65
2016-06-15T06:03:28.684Z,70
2016-06-15T06:04:28.828Z,70
2016-06-15T06:05:28.830Z,70
2016-06-15T06:06:30.130Z,65
2016-06-15T06:07:28.822Z,65
2016-06-15T06:08:28.856Z,70
2016-06-15T06:09:28.842Z,80
2016-06-15T06:10:28.893Z,85
2016-06-15T06:11:29.053Z,90
2016-06-15T06:12:28.868Z,95
2016-06-15T06:13:28.872Z,100
2016-06-15T06:14:28.858Z,100
2016-06-15T06:15:28.894Z,100
2016-06-15T06:16:29.052Z,100
2016-06-15T06:17:28.884Z,115
2016-06-15T06:18:28.886Z,125
2016-06-15T06:19:28.874Z,135
2016-06-15T06:20:28.877Z,150
2016-06-15T06:21:29.084Z,170
2016-06-15T06:22:28.852Z,190
2016-06-15T06:23:28.902Z,200
2016-06-15T06:24:28.858Z,190
2016-06-15T06:25:28.908Z,180
2016-06-15T06:26:29.036Z,165
2016-06-15T06:27:28.914Z,155
2016-06-15T06:28:28.870Z,150
2016-06-15T06:29:28.905Z,150
2016-06-15T06:30:28.892Z,155
2016-06-15T06:31:28.943Z,165
2016-06-15T06:32:28.898Z,170
2016-06-15T06:33:28.933Z,175
2016-06-15T06:34:28.905Z,175
2016-06-15T06:35:28.908Z,170
2016-06-15T06:36:29.880Z,165
2016-06-15T06:37:28.897Z,165
2016-06-15T06:38:28.917Z,170
2016-06-15T06:39:28.935Z,185
2016-06-15T06:40:28.892Z,190
2016-06-15T06:41:29.051Z,190
2016-06-15T06:42:28.819Z,185
2016-06-15T06:43:29.635Z,170
2016-06-15T06:44:30.310Z,165
2016-06-15T06:45:28.908Z,155
2016-06-15T06:46:29.019Z,140
2016-06-15T06:47:28.960Z,130
2016-06-15T06:48:28.947Z,125
2016-06-15T06:49:28.951Z,120
2016-06-15T06:50:28.938Z,115
2016-06-15T06:51:29.004Z,110
2016-06-15T06:52:28.944Z,110
2016-06-15T06:53:28.963Z,105
2016-06-15T06:54:28.935Z,110
2016-06-15T06:55:28.939Z,110
2016-06-15T06:56:29.097Z,105
2016-06-15T06:57:28.960Z,105
2016-06-15T06:58:29.025Z,110
2016-06-15T06:59:28.794Z,115
2016-06-15T07:00:28.969Z,135
2016-06-15T07:01:29.003Z,160
2016-06-15T07:02:28.944Z,185
2016-06-15T07:03:28.978Z,200
2016-06-15T07:04:28.981Z,215
2016-06-15T07:05:29.000Z,215
2016-06-15T07:06:28.972Z,185
2016-06-15T07:07:28.990Z,160
2016-06-15T07:08:28.993Z,145
2016-06-15T07:09:29.012Z,135
2016-06-15T07:10:29.015Z,135
2016-06-15T07:11:28.988Z,135
2016-06-15T07:12:28.990Z,130
2016-06-15T07:13:29.009Z,110
2016-06-15T07:14:28.839Z,95
2016-06-15T07:15:29.031Z,95
2016-06-15T07:16:29.174Z,110
2016-06-15T07:17:29.006Z,135
2016-06-15T07:18:28.884Z,145
2016-06-15T07:19:29.027Z,140
2016-06-15T07:20:29.030Z,140
2016-06-15T07:21:29.081Z,145
2016-06-15T07:22:28.896Z,150
2016-06-15T07:23:29.055Z,150
2016-06-15T07:24:29.042Z,145
2016-06-15T07:25:28.859Z,130
2016-06-15T07:26:29.189Z,110
2016-06-15T07:27:29.037Z,105
2016-06-15T07:28:29.040Z,110
2016-06-15T07:29:29.058Z,125
2016-06-15T07:30:29.296Z,145
2016-06-15T07:31:29.283Z,160
2016-06-15T07:32:29.052Z,175
2016-06-15T07:33:29.086Z,170
2016-06-15T07:34:29.058Z,180
2016-06-15T07:35:29.061Z,190
2016-06-15T07:36:29.345Z,190
2016-06-15T07:37:29.223Z,185
2016-06-15T07:38:28.913Z,185
2016-06-15T07:39:29.088Z,190
2016-06-15T07:40:29.092Z,190
2016-06-15T07:41:29.298Z,200
2016-06-15T07:42:29.097Z,210
2016-06-15T07:43:29.101Z,215
2016-06-15T07:44:29.089Z,210
2016-06-15T07:45:29.107Z,205
2016-06-15T07:46:29.329Z,200
2016-06-15T07:47:29.098Z,195
2016-06-15T07:48:29.101Z,185
2016-06-15T07:49:29.104Z,190
2016-06-15T07:50:29.138Z,185
2016-06-15T07:51:29.735Z,195
2016-06-15T07:52:29.364Z,190
2016-06-15T07:53:29.131Z,190
2016-06-15T07:54:29.134Z,180
2016-06-15T07:55:29.138Z,170
2016-06-15T07:56:29.204Z,170
2016-06-15T07:57:29.144Z,170
2016-06-15T07:58:29.162Z,165
2016-06-15T07:59:29.010Z,165
2016-06-15T08:00:29.169Z,170
2016-06-15T08:01:29.172Z,170
2016-06-15T08:02:29.159Z,165
2016-06-15T08:03:29.162Z,155
2016-06-15T08:04:29.165Z,140
2016-06-15T08:05:29.168Z,125
2016-06-15T08:06:29.782Z,110
2016-06-15T08:07:29.518Z,100
2016-06-15T08:08:29.022Z,90
2016-06-15T08:09:29.166Z,85
2016-06-15T08:10:29.230Z,75
2016-06-15T08:11:29.328Z,70
2016-06-15T08:12:29.174Z,65
2016-06-15T08:13:29.193Z,65
2016-06-15T08:14:29.165Z,65
2016-06-15T08:15:29.246Z,65
2016-06-15T08:16:29.516Z,65
2016-06-15T08:17:29.190Z,70
2016-06-15T08:18:29.239Z,70
2016-06-15T08:19:29.071Z,80
2016-06-15T08:20:29.214Z,90
2016-06-15T08:21:31.062Z,100
2016-06-15T08:22:30.689Z,105
2016-06-15T08:23:29.959Z,110
2016-06-15T08:24:30.133Z,110
2016-06-15T08:25:29.215Z,115
2016-06-15T08:26:29.218Z,115
2016-06-15T08:27:29.252Z,120
2016-06-15T08:28:29.239Z,125
2016-06-15T08:29:29.227Z,130
2016-06-15T08:30:29.011Z,140
2016-06-15T08:31:29.233Z,145
2016-06-15T08:32:29.221Z,145
2016-06-15T08:33:29.223Z,150
2016-06-15T08:34:29.258Z,150
2016-06-15T08:35:29.261Z,150
2016-06-15T08:36:29.280Z,150
2016-06-15T08:37:29.423Z,145
2016-06-15T08:38:29.082Z,145
2016-06-15T08:39:28.945Z,150
2016-06-15T08:40:29.261Z,160
2016-06-15T08:41:29.467Z,155
2016-06-15T08:42:29.267Z,160
2016-06-15T08:43:29.270Z,160
2016-06-15T08:44:29.241Z,155
2016-06-15T08:45:29.261Z,155
2016-06-15T08:46:29.325Z,155
2016-06-15T08:47:29.283Z,155
2016-06-15T08:48:29.269Z,150
2016-06-15T08:49:29.163Z,150
2016-06-15T08:50:29.151Z,150
2016-06-15T08:51:30.544Z,150
2016-06-15T08:52:29.141Z,145
2016-06-15T08:53:29.346Z,145
2016-06-15T08:54:29.304Z,150
2016-06-15T08:55:29.307Z,150
2016-06-15T08:56:29.294Z,150
2016-06-15T08:57:29.313Z,155
2016-06-15T08:58:29.269Z,155
2016-06-15T08:59:29.319Z,155
2016-06-15T09:00:33.837Z,150
2016-06-15T09:01:36.888Z,145
2016-06-15T09:02:29.313Z,140
2016-06-15T09:03:29.316Z,135
2016-06-15T09:04:29.350Z,130
2016-06-15T09:05:29.338Z,125
2016-06-15T09:06:29.591Z,125
2016-06-15T09:07:29.312Z,125
2016-06-15T09:08:29.363Z,125
2016-06-15T09:09:29.350Z,125
2016-06-15T09:10:29.399Z,125
2016-06-15T09:11:29.544Z,130
2016-06-15T09:12:29.218Z,130
2016-06-15T09:13:40.673Z,135
2016-06-15T09:14:29.356Z,140
2016-06-15T09:15:45.268Z,145
2016-06-15T09:16:29.471Z,155
2016-06-15T09:17:29.380Z,160
2016-06-15T09:18:29.369Z,160
2016-06-15T09:19:29.371Z,165
2016-06-15T09:20:29.389Z,165
2016-06-15T09:21:29.550Z,165
2016-06-15T09:22:30.692Z,165
2016-06-15T09:23:29.368Z,165
2016-06-15T09:24:29.229Z,170
2016-06-15T09:25:29.374Z,175
2016-06-15T09:26:29.579Z,180
2016-06-15T09:27:29.396Z,185
2016-06-15T09:28:29.383Z,190
2016-06-15T09:29:29.396Z,195
2016-06-15T09:30:29.399Z,205
2016-06-15T09:31:29.402Z,215
2016-06-15T09:32:29.390Z,220
2016-06-15T09:33:29.393Z,230
2016-06-15T09:34:29.395Z,235
2016-06-15T09:35:29.415Z,240
2016-06-15T09:36:29.574Z,240
2016-06-15T09:37:30.264Z,240
2016-06-15T09:38:29.407Z,235
2016-06-15T09:39:29.442Z,235
2016-06-15T09:40:29.258Z,230
2016-06-15T09:41:29.636Z,225
2016-06-15T09:42:29.436Z,220
2016-06-15T09:43:29.408Z,220
2016-06-15T09:44:29.426Z,215
2016-06-15T09:45:29.305Z,215
2016-06-15T09:46:29.573Z,210
2016-06-15T09:47:29.451Z,200
2016-06-15T09:48:29.470Z,185
2016-06-15T09:49:29.177Z,180
2016-06-15T09:50:29.210Z,175
2016-06-15T09:51:29.323Z,175
2016-06-15T09:52:30.608Z,175
2016-06-15T09:53:30.173Z,175
2016-06-15T09:54:29.488Z,170
2016-06-15T09:55:29.476Z,165
2016-06-15T09:56:29.479Z,160
2016-06-15T09:57:29.482Z,155
2016-06-15T09:58:29.485Z,150
2016-06-15T09:59:29.489Z,150
2016-06-15T10:00:29.507Z,155
2016-06-15T10:01:29.681Z,155
2016-06-15T10:02:29.497Z,155
2016-06-15T10:03:29.500Z,150
2016-06-15T10:04:29.397Z,140
2016-06-15T10:05:29.549Z,145
2016-06-15T10:06:29.811Z,145
2016-06-15T10:07:30.808Z,150
2016-06-15T10:08:29.694Z,155
2016-06-15T10:09:29.725Z,160
2016-06-15T10:10:29.759Z,160
2016-06-15T10:11:29.821Z,160
2016-06-15T10:12:29.761Z,160
2016-06-15T10:13:29.795Z,155
2016-06-15T10:14:29.839Z,155
2016-06-15T10:15:29.816Z,155
2016-06-15T10:16:37.824Z,150
2016-06-15T10:17:47.786Z,150
2016-06-15T10:18:31.732Z,150
2016-06-15T10:19:29.848Z,150
2016-06-15T10:20:29.822Z,155
2016-06-15T10:21:29.999Z,155
2016-06-15T10:22:29.769Z,160
2016-06-15T10:23:29.868Z,170
2016-06-15T10:24:29.872Z,180
2016-06-15T10:25:29.876Z,200
2016-06-15T10:26:29.942Z,215
2016-06-15T10:27:29.851Z,230
2016-06-15T10:28:29.870Z,250
2016-06-15T10:29:29.749Z,285
2016-06-15T10:30:29.877Z,305
2016-06-15T10:31:29.927Z,335
2016-06-15T10:32:29.916Z,340
2016-06-15T10:33:29.903Z,340
2016-06-15T10:34:29.907Z,340
2016-06-15T10:35:31.347Z,335
2016-06-15T10:36:47.585Z,330
2016-06-15T10:38:12.091Z,325
2016-06-15T10:38:48.278Z,325
2016-06-15T10:40:16.988Z,320
2016-06-15T10:40:57.145Z,325
2016-06-15T10:42:18.119Z,335
2016-06-15T10:43:04.372Z,345
2016-06-15T10:43:30.622Z,350
2016-06-15T10:44:30.782Z,355
2016-06-15T10:45:44.535Z,345
2016-06-15T10:47:36.884Z,340
2016-06-15T10:48:49.919Z,340
2016-06-15T10:49:57.798Z,335
2016-06-15T10:50:53.019Z,300
2016-06-15T10:51:38.554Z,290
2016-06-15T10:53:19.685Z,300
2016-06-15T10:55:01.844Z,280
